Time;durP1;ratioP1;P1;durP2;ratioP2;P2;SDS_P1;SDS_P2;PMS_P1;PMS_P2;Temp;Humidity;BMP_temperature;BMP_pressure;BME280_temperature;BME280_humidity;BME280_pressure;Samples;Min_cycle;Max_cycle;Signal;HPM_P1;HPM_P2
2024/03/29 00:00:34;;;;;;;;;;;;;;;21.42;32.04;98661.13;4098142;29;19922;-66
2024/03/29 00:02:35;;;;;;;;;;;;;;;21.42;31.87;98650.41;4098130;29;19922;-66
2024/03/29 00:04:35;;;;;;;;;;;;;;;21.43;31.87;98652.09;4097579;29;20413;-66
2024/03/29 00:06:36;;;;;;;;;;;;;;;21.43;31.85;98641.38;4098063;29;19931;-66
2024/03/29 00:08:37;;;;;;;;;;;;;;;21.45;31.95;98647.41;4097892;29;19933;-66
2024/03/29 00:10:38;;;;;;;;;;;;;;;21.46;32.10;98656.25;4097889;29;19923;-66
2024/03/29 00:12:39;;;;;;;;;;;;;;;21.46;31.89;98650.91;4098136;29;19929;-66
2024/03/29 00:14:40;;;;;;;;;;;;;;;21.46;32.15;98654.44;4098133;29;19929;-66
2024/03/29 00:16:41;;;;;;;;;;;;;;;21.48;31.90;98656.91;4098089;29;19922;-66
2024/03/29 00:18:42;;;;;;;;;;;;;;;21.50;32.14;98657.59;4097683;28;20021;-66
2024/03/29 00:20:42;;;;;;;;;;;;;;;21.49;31.95;98650.56;4100257;29;19922;-66
2024/03/29 00:22:43;;;;;;;;;;;;;;;21.50;32.14;98653.06;4100841;29;19930;-66
2024/03/29 00:24:44;;;;;;;;;;;;;;;21.48;32.09;98648.88;4100855;29;20476;-66
2024/03/29 00:26:45;;;;;;;;;;;;;;;21.48;32.11;98640.88;4085031;29;19970;-66
2024/03/29 00:28:46;;;;;;;;;;;;;;;21.46;32.34;98638.38;4085077;29;19962;-66
2024/03/29 00:30:47;;;;;;;;;;;;;;;21.45;32.20;98620.66;4101072;29;19922;-66
2024/03/29 00:32:47;;;;;;;;;;;;;;;21.47;32.21;98621.31;4100985;29;20365;-66
2024/03/29 00:34:52;;;;;;;;;;;;;;;21.49;32.58;98615.78;4100508;29;19926;-65
2024/03/29 00:36:53;;;;;;;;;;;;;;;21.49;32.10;98610.44;4100926;29;19928;-66
2024/03/29 00:38:53;;;;;;;;;;;;;;;21.50;32.48;98609.44;4100826;29;20433;-65
2024/03/29 00:40:54;;;;;;;;;;;;;;;21.50;32.35;98609.44;4100560;29;19922;-66
2024/03/29 00:42:55;;;;;;;;;;;;;;;21.52;32.28;98607.44;4100880;29;20398;-66
2024/03/29 00:44:56;;;;;;;;;;;;;;;21.53;32.27;98603.72;4100919;29;19927;-65
2024/03/29 00:46:57;;;;;;;;;;;;;;;21.53;32.38;98596.53;4100809;29;19961;-65
2024/03/29 00:48:58;;;;;;;;;;;;;;;21.53;32.46;98591.19;4100111;29;20020;-64
2024/03/29 00:50:59;;;;;;;;;;;;;;;21.51;32.57;98595.88;4100716;29;19985;-66
2024/03/29 00:52:59;;;;;;;;;;;;;;;21.51;32.36;98601.22;4100684;29;19922;-64
2024/03/29 00:55:00;;;;;;;;;;;;;;;21.51;32.45;98601.22;4100487;29;19922;-66
2024/03/29 00:57:01;;;;;;;;;;;;;;;21.51;32.46;98598.56;4100442;29;20465;-67
2024/03/29 00:59:02;;;;;;;;;;;;;;;21.51;32.69;98598.56;4100636;29;19923;-65
2024/03/29 01:01:03;;;;;;;;;;;;;;;21.53;32.50;98591.19;4100429;29;19922;-66
2024/03/29 01:03:04;;;;;;;;;;;;;;;21.55;32.76;98591.81;4100213;29;20009;-65
2024/03/29 01:05:05;;;;;;;;;;;;;;;21.55;32.48;98601.72;4100513;29;20374;-65
2024/03/29 01:07:06;;;;;;;;;;;;;;;21.55;32.61;98594.50;4100410;29;19944;-65
2024/03/29 01:09:11;;;;;;;;;;;;;;;21.57;32.58;98601.56;4084346;29;19974;-64
2024/03/29 01:11:11;;;;;;;;;;;;;;;21.56;32.82;98600.69;4100114;29;19922;-65
2024/03/29 01:13:12;;;;;;;;;;;;;;;21.55;32.80;98589.16;4100246;29;19922;-65
2024/03/29 01:15:13;;;;;;;;;;;;;;;21.55;32.55;98605.19;4100391;29;19922;-65
2024/03/29 01:17:14;;;;;;;;;;;;;;;21.55;32.82;98615.91;4099628;29;20453;-64
2024/03/29 01:19:15;;;;;;;;;;;;;;;21.54;32.81;98594.69;4100107;29;19972;-65
2024/03/29 01:21:17;;;;;;;;;;;;;;;21.53;32.64;98599.22;4100163;29;20473;-65
2024/03/29 01:23:18;;;;;;;;;;;;;;;21.52;32.88;98589.53;4100024;29;19933;-65
2024/03/29 01:25:19;;;;;;;;;;;;;;;21.51;33.00;98592.38;4100262;29;19926;-65
2024/03/29 01:27:20;;;;;;;;;;;;;;;21.54;32.83;98594.69;4100292;29;19933;-65
2024/03/29 01:29:21;;;;;;;;;;;;;;;21.56;32.55;98606.06;4100168;29;19934;-65
2024/03/29 01:31:22;;;;;;;;;;;;;;;21.56;32.74;98608.72;4099600;28;19930;-65
2024/03/29 01:33:23;;;;;;;;;;;;;;;21.58;32.72;98624.63;4099681;29;20404;-65
2024/03/29 01:35:24;;;;;;;;;;;;;;;21.58;32.73;98619.28;4099856;29;19922;-66
2024/03/29 01:37:24;;;;;;;;;;;;;;;21.60;32.77;98615.41;4100094;29;20401;-65
2024/03/29 01:39:31;;;;;;;;;;;;;;;21.60;32.93;98612.72;4099973;29;19922;-67
2024/03/29 01:41:32;;;;;;;;;;;;;;;21.59;32.92;98597.69;4099885;29;19922;-66
2024/03/29 01:43:32;;;;;;;;;;;;;;;21.59;32.66;98611.06;4084067;29;19930;-65
2024/03/29 01:45:34;;;;;;;;;;;;;;;21.57;32.89;98617.59;4099744;29;20366;-64
2024/03/29 01:47:35;;;;;;;;;;;;;;;21.55;32.87;98626.59;4099520;29;19932;-65
2024/03/29 01:49:36;;;;;;;;;;;;;;;21.54;32.77;98624.97;4099634;29;19926;-65
2024/03/29 01:51:39;;;;;;;;;;;;;;;21.54;32.89;98598.22;4099593;29;19922;-65
2024/03/29 01:53:41;;;;;;;;;;;;;;;21.54;32.74;98595.53;4099578;29;19932;-64
2024/03/29 01:55:41;;;;;;;;;;;;;;;21.57;33.10;98628.31;4099536;29;19923;-66
2024/03/29 01:57:42;;;;;;;;;;;;;;;21.57;32.72;98615.78;4099422;29;19966;-66
2024/03/29 01:59:45;;;;;;;;;;;;;;;21.60;32.97;98595.88;4099490;29;19930;-66
2024/03/29 02:01:46;;;;;;;;;;;;;;;21.59;33.16;98596.88;4099130;29;19928;-65
2024/03/29 02:03:47;;;;;;;;;;;;;;;21.60;33.10;98602.03;4099523;29;20000;-66
2024/03/29 02:05:49;;;;;;;;;;;;;;;21.60;33.12;98611.91;4099519;29;19926;-65
2024/03/29 02:07:50;;;;;;;;;;;;;;;21.59;32.97;98605.72;4099449;29;19922;-66
2024/03/29 02:09:51;;;;;;;;;;;;;;;21.61;32.99;98597.53;4099200;29;19929;-67
2024/03/29 02:11:52;;;;;;;;;;;;;;;21.59;33.22;98575.47;4099241;29;19922;-66
2024/03/29 02:13:53;;;;;;;;;;;;;;;21.58;33.01;98620.13;4099502;29;20036;-65
2024/03/29 02:15:54;;;;;;;;;;;;;;;21.56;33.13;98622.09;4098950;29;19923;-64
2024/03/29 02:17:54;;;;;;;;;;;;;;;21.55;33.24;98615.91;4099250;29;19953;-64
2024/03/29 02:19:55;;;;;;;;;;;;;;;21.57;33.30;98618.44;4099169;29;20010;-63
2024/03/29 02:21:59;;;;;;;;;;;;;;;21.58;33.04;98608.56;4083330;29;19922;-65
2024/03/29 02:24:09;;;;;;;;;;;;;;;21.58;33.35;98603.22;4099253;29;19926;-65
2024/03/29 02:26:11;;;;;;;;;;;;;;;21.60;33.24;98606.56;4083068;29;19923;-66
2024/03/29 02:28:13;;;;;;;;;;;;;;;21.61;33.22;98616.25;4099094;29;19926;-65
2024/03/29 02:30:14;;;;;;;;;;;;;;;21.61;33.22;98608.22;4098786;29;19941;-65
2024/03/29 02:32:15;;;;;;;;;;;;;;;21.61;33.23;98609.06;4098958;29;19926;-65
2024/03/29 02:34:16;;;;;;;;;;;;;;;21.62;33.27;98602.69;4099109;29;20009;-66
2024/03/29 02:36:17;;;;;;;;;;;;;;;21.63;33.38;98601.69;4099188;29;20005;-66
2024/03/29 02:38:18;;;;;;;;;;;;;;;21.62;33.15;98599.19;4099000;29;20013;-65
2024/03/29 02:40:19;;;;;;;;;;;;;;;21.62;33.43;98596.53;4098962;29;19945;-65
2024/03/29 02:42:20;;;;;;;;;;;;;;;21.60;33.41;98598.53;4098349;28;19922;-65
2024/03/29 02:44:21;;;;;;;;;;;;;;;21.60;33.62;98611.91;4098601;29;19922;-66
2024/03/29 02:46:22;;;;;;;;;;;;;;;21.60;33.44;98617.25;4098794;29;19930;-66
2024/03/29 02:48:23;;;;;;;;;;;;;;;21.61;33.17;98610.91;4082824;29;19930;-65
2024/03/29 02:50:23;;;;;;;;;;;;;;;21.61;33.40;98614.41;4082940;29;19926;-66
2024/03/29 02:52:24;;;;;;;;;;;;;;;21.62;33.34;98615.25;4098710;29;19978;-65
2024/03/29 02:54:25;;;;;;;;;;;;;;;21.63;33.49;98623.09;4098719;29;20009;-66
2024/03/29 02:56:27;;;;;;;;;;;;;;;21.63;33.38;98622.25;4098878;29;19922;-65
2024/03/29 02:58:27;;;;;;;;;;;;;;;21.63;33.34;98627.59;4098702;29;20346;-65
2024/03/29 03:00:28;;;;;;;;;;;;;;;21.64;33.44;98629.25;4098438;29;20032;-65
2024/03/29 03:02:29;;;;;;;;;;;;;;;21.64;33.54;98630.09;4098446;29;19965;-66
2024/03/29 03:04:30;;;;;;;;;;;;;;;21.64;33.57;98624.75;4098576;29;20378;-66
2024/03/29 03:06:31;;;;;;;;;;;;;;;21.61;33.45;98630.44;4098626;29;19957;-66
2024/03/29 03:11:01;;;;;;;;;;;;;;;21.60;33.41;98622.63;4098611;29;20281;-66
2024/03/29 03:13:02;;;;;;;;;;;;;;;21.58;33.44;98616.59;4098554;29;19922;-66
2024/03/29 03:15:03;;;;;;;;;;;;;;;21.59;33.73;98618.25;4098383;29;20437;-66
2024/03/29 03:17:04;;;;;;;;;;;;;;;21.60;33.40;98622.63;4098444;29;19933;-66
2024/03/29 03:19:05;;;;;;;;;;;;;;;21.61;33.58;98618.94;4098394;29;19926;-67
2024/03/29 03:21:06;;;;;;;;;;;;;;;21.63;33.46;98622.25;4098417;29;19985;-67
2024/03/29 03:23:06;;;;;;;;;;;;;;;21.64;33.60;98616.72;4098405;29;20022;-67
2024/03/29 03:25:07;;;;;;;;;;;;;;;21.64;33.46;98618.56;4082599;29;19958;-67
2024/03/29 03:27:08;;;;;;;;;;;;;;;21.65;33.59;98631.78;4098492;29;19926;-67
2024/03/29 03:29:10;;;;;;;;;;;;;;;21.66;33.34;98632.59;4097812;29;19938;-67
2024/03/29 03:31:11;;;;;;;;;;;;;;;21.65;33.69;98644.31;4098270;29;19937;-67
2024/03/29 03:33:11;;;;;;;;;;;;;;;21.64;33.59;98635.47;4098189;29;19923;-67
2024/03/29 03:35:12;;;;;;;;;;;;;;;21.62;33.64;98637.47;4098451;29;19922;-67
2024/03/29 03:37:13;;;;;;;;;;;;;;;21.62;33.40;98637.47;4098161;29;20350;-66
2024/03/29 03:39:14;;;;;;;;;;;;;;;21.60;33.47;98638.66;4098240;29;19929;-68
2024/03/29 03:41:15;;;;;;;;;;;;;;;21.59;33.73;98651.19;4098388;29;19922;-66
2024/03/29 03:43:16;;;;;;;;;;;;;;;21.62;33.74;98645.50;4097755;29;19923;-67
2024/03/29 03:45:17;;;;;;;;;;;;;;;21.63;33.68;98657.00;4098099;29;20005;-66
2024/03/29 03:47:17;;;;;;;;;;;;;;;21.63;33.77;98657.00;4098511;29;20325;-66
2024/03/29 03:49:18;;;;;;;;;;;;;;;21.65;33.58;98653.19;4098175;29;19977;-66
2024/03/29 03:51:19;;;;;;;;;;;;;;;21.65;33.40;98639.81;4098236;29;19922;-66
2024/03/29 03:53:20;;;;;;;;;;;;;;;21.66;33.78;98640.63;4097471;29;19930;-67
2024/03/29 03:55:21;;;;;;;;;;;;;;;21.65;33.83;98636.28;4098180;29;20393;-66
2024/03/29 03:57:22;;;;;;;;;;;;;;;21.66;33.71;98645.97;4098034;29;19958;-66
2024/03/29 03:59:23;;;;;;;;;;;;;;;21.66;33.70;98645.97;4098130;29;19928;-66
2024/03/29 04:01:24;;;;;;;;;;;;;;;21.65;33.78;98663.03;4098258;29;19929;-67
2024/03/29 04:03:24;;;;;;;;;;;;;;;21.65;33.63;98674.56;4098202;29;19954;-66
2024/03/29 04:05:26;;;;;;;;;;;;;;;21.62;33.57;98680.28;4082186;29;19950;-66
2024/03/29 04:07:27;;;;;;;;;;;;;;;21.61;33.74;98675.09;4098172;29;19929;-66
2024/03/29 04:09:28;;;;;;;;;;;;;;;21.63;33.53;98679.25;4098403;29;19922;-66
2024/03/29 04:11:29;;;;;;;;;;;;;;;21.63;33.63;98683.75;4097646;29;19933;-66
2024/03/29 04:13:30;;;;;;;;;;;;;;;21.64;33.72;98690.78;4098204;29;20315;-66
2024/03/29 04:15:32;;;;;;;;;;;;;;;21.66;33.94;98686.91;4097906;29;19923;-66
2024/03/29 04:17:33;;;;;;;;;;;;;;;21.65;33.70;98689.78;4097857;29;19929;-66
2024/03/29 04:19:34;;;;;;;;;;;;;;;21.66;33.78;98692.28;4098181;29;19922;-66
2024/03/29 04:21:34;;;;;;;;;;;;;;;21.69;33.71;98704.50;4097849;29;20014;-66
2024/03/29 04:23:36;;;;;;;;;;;;;;;21.69;33.94;98704.50;4098114;29;20017;-64
2024/03/29 04:25:37;;;;;;;;;;;;;;;21.66;33.85;98704.81;4097729;29;19929;-66
2024/03/29 04:27:38;;;;;;;;;;;;;;;21.66;33.95;98704.81;4082081;29;19931;-66
2024/03/29 04:29:39;;;;;;;;;;;;;;;21.64;33.96;98710.38;4097977;29;19980;-67
2024/03/29 04:31:40;;;;;;;;;;;;;;;21.64;33.95;98715.72;4098177;29;19929;-66
2024/03/29 04:33:41;;;;;;;;;;;;;;;21.63;33.98;98718.53;4066169;29;19971;-66
2024/03/29 04:35:50;;;;;;;;;;;;;;;21.62;33.68;98731.09;4097911;29;20390;-66
2024/03/29 04:37:50;;;;;;;;;;;;;;;21.63;34.04;98730.09;4098133;29;19922;-66
2024/03/29 04:39:51;;;;;;;;;;;;;;;21.66;34.01;98734.25;4097978;29;20462;-67
2024/03/29 04:41:55;;;;;;;;;;;;;;;21.65;33.81;98740.59;4097491;29;19923;-66
2024/03/29 04:43:56;;;;;;;;;;;;;;;21.66;33.92;98736.94;4097999;29;19929;-66
2024/03/29 04:46:06;;;;;;;;;;;;;;;21.68;33.99;98730.38;4097834;29;20021;-67
2024/03/29 04:48:07;;;;;;;;;;;;;;;21.69;33.96;98745.44;4097690;29;20428;-67
2024/03/29 04:50:08;;;;;;;;;;;;;;;21.68;34.02;98738.41;4097707;29;19922;-66
2024/03/29 04:52:09;;;;;;;;;;;;;;;21.69;34.11;98748.13;4098099;29;20039;-66
2024/03/29 04:54:10;;;;;;;;;;;;;;;21.67;33.83;98746.63;4097934;29;19922;-66
2024/03/29 04:56:11;;;;;;;;;;;;;;;21.67;33.81;98746.63;4097882;29;19976;-66
2024/03/29 04:58:11;;;;;;;;;;;;;;;21.65;33.91;98753.97;4098073;29;19969;-66
2024/03/29 05:00:13;;;;;;;;;;;;;;;21.64;34.23;98749.63;4097799;29;20333;-66
2024/03/29 05:02:14;;;;;;;;;;;;;;;21.63;33.84;98753.31;4097956;29;19930;-67
2024/03/29 05:04:16;;;;;;;;;;;;;;;21.64;33.98;98749.63;4097640;29;19933;-66
2024/03/29 05:06:17;;;;;;;;;;;;;;;21.64;34.13;98753.16;4099765;28;20311;-66
2024/03/29 05:08:19;;;;;;;;;;;;;;;21.64;33.98;98747.81;4100644;29;19954;-65
2024/03/29 05:10:22;;;;;;;;;;;;;;;21.66;33.96;98751.13;4099988;29;19922;-66
2024/03/29 05:12:23;;;;;;;;;;;;;;;21.67;34.20;98754.66;4100476;29;19922;-65
2024/03/29 05:14:24;;;;;;;;;;;;;;;21.68;34.19;98764.34;4100561;29;19973;-66
2024/03/29 05:16:25;;;;;;;;;;;;;;;21.67;33.85;98760.00;4100673;29;19986;-66
2024/03/29 05:18:26;;;;;;;;;;;;;;;21.69;34.15;98766.03;4100422;29;19923;-65
2024/03/29 05:20:27;;;;;;;;;;;;;;;21.68;34.11;98749.13;4100293;29;19923;-66
2024/03/29 05:22:27;;;;;;;;;;;;;;;21.68;34.08;98756.31;4100151;29;19968;-65
2024/03/29 05:24:28;;;;;;;;;;;;;;;21.67;33.93;98770.69;4084414;29;20005;-65
2024/03/29 05:26:30;;;;;;;;;;;;;;;21.64;33.91;98777.25;4100325;29;20033;-66
2024/03/29 05:28:31;;;;;;;;;;;;;;;21.62;34.36;98789.13;4084395;29;19929;-66
2024/03/29 05:30:32;;;;;;;;;;;;;;;21.65;33.94;98791.44;4100362;29;20345;-66
2024/03/29 05:32:32;;;;;;;;;;;;;;;21.65;34.17;98796.78;4100100;29;19991;-66
2024/03/29 05:34:33;;;;;;;;;;;;;;;21.67;34.01;98800.13;4100238;29;20396;-66
2024/03/29 05:36:35;;;;;;;;;;;;;;;21.67;34.29;98794.78;4100197;29;19969;-66
2024/03/29 05:38:37;;;;;;;;;;;;;;;21.69;34.20;98798.13;4099901;29;19946;-66
2024/03/29 05:40:38;;;;;;;;;;;;;;;21.69;34.30;98801.63;4100205;29;20461;-66
2024/03/29 05:42:39;;;;;;;;;;;;;;;21.70;34.15;98810.47;4100103;29;19933;-65
2024/03/29 05:44:40;;;;;;;;;;;;;;;21.71;33.93;98809.47;4100222;29;20302;-66
2024/03/29 05:46:41;;;;;;;;;;;;;;;21.71;34.30;98814.81;4099956;29;19978;-65
2024/03/29 05:48:42;;;;;;;;;;;;;;;21.70;34.29;98810.47;4099797;28;20389;-65
2024/03/29 05:50:43;;;;;;;;;;;;;;;21.69;34.40;98809.66;4099725;29;19998;-65
2024/03/29 05:52:43;;;;;;;;;;;;;;;21.68;34.40;98813.31;4099627;29;19961;-66
2024/03/29 05:54:45;;;;;;;;;;;;;;;21.65;34.27;98805.66;4099827;29;19969;-66
2024/03/29 05:56:46;;;;;;;;;;;;;;;21.65;34.10;98807.50;4100122;29;20529;-65
2024/03/29 05:58:46;;;;;;;;;;;;;;;21.66;34.07;98804.63;4099709;29;19922;-66
2024/03/29 06:00:48;;;;;;;;;;;;;;;21.66;34.37;98795.78;4099770;29;19933;-66
2024/03/29 06:02:50;;;;;;;;;;;;;;;21.67;34.44;98789.44;4099669;29;20045;-67
2024/03/29 06:04:50;;;;;;;;;;;;;;;21.69;34.38;98798.94;4099775;29;20016;-66
2024/03/29 06:06:52;;;;;;;;;;;;;;;21.70;34.08;98800.63;4099933;29;20435;-65
2024/03/29 06:08:53;;;;;;;;;;;;;;;21.70;34.17;98799.78;4099473;29;19930;-66
2024/03/29 06:10:54;;;;;;;;;;;;;;;21.73;34.35;98801.28;4099781;29;20310;-66
2024/03/29 06:12:54;;;;;;;;;;;;;;;21.72;34.26;98789.72;4099676;29;19922;-65
2024/03/29 06:17:24;;;;;;;;;;;;;;;21.69;34.39;98806.97;4098274;28;20448;-65
2024/03/29 06:19:26;;;;;;;;;;;;;;;21.68;34.19;98807.16;4099338;29;19929;-65
2024/03/29 06:21:27;;;;;;;;;;;;;;;21.68;34.42;98793.78;4099545;29;20005;-65
2024/03/29 06:23:28;;;;;;;;;;;;;;;21.68;34.25;98793.78;4099056;29;19928;-65
2024/03/29 06:25:29;;;;;;;;;;;;;;;21.69;34.01;98793.59;4099427;29;19922;-66
2024/03/29 06:27:31;;;;;;;;;;;;;;;21.68;34.30;98791.91;4099361;29;19973;-65
2024/03/29 06:29:32;;;;;;;;;;;;;;;21.70;34.44;98802.44;4099270;29;19922;-66
2024/03/29 06:31:33;;;;;;;;;;;;;;;21.70;34.38;98805.97;4099149;29;20432;-66
2024/03/29 06:33:34;;;;;;;;;;;;;;;21.70;34.05;98800.63;4099101;29;19922;-66
2024/03/29 06:35:35;;;;;;;;;;;;;;;21.71;34.12;98814.81;4098975;29;20385;-66
2024/03/29 06:37:36;;;;;;;;;;;;;;;21.73;34.31;98814.66;4098843;29;20436;-66
2024/03/29 06:39:37;;;;;;;;;;;;;;;21.71;34.48;98825.53;4099287;29;20003;-66
2024/03/29 06:41:38;;;;;;;;;;;;;;;21.73;34.31;98812.00;4083299;29;19961;-66
2024/03/29 06:43:43;;;;;;;;;;;;;;;21.70;34.05;98802.44;4099312;29;19923;-67
2024/03/29 06:45:44;;;;;;;;;;;;;;;21.68;34.19;98813.31;4098886;29;20031;-67
2024/03/29 06:47:45;;;;;;;;;;;;;;;21.68;34.21;98809.84;4099099;29;19948;-67
2024/03/29 06:49:46;;;;;;;;;;;;;;;21.67;34.32;98816.19;4098884;29;19923;-65
2024/03/29 06:51:47;;;;;;;;;;;;;;;21.67;34.39;98830.38;4098780;29;20001;-65
2024/03/29 06:53:48;;;;;;;;;;;;;;;21.67;34.31;98835.72;4099164;29;19930;-65
2024/03/29 06:55:49;;;;;;;;;;;;;;;21.69;34.50;98841.75;4098933;29;20374;-65
2024/03/29 06:57:50;;;;;;;;;;;;;;;21.69;34.29;98841.75;4098861;29;19948;-65
2024/03/29 06:59:52;;;;;;;;;;;;;;;21.72;34.14;98839.75;4098731;29;19922;-65
2024/03/29 07:01:53;;;;;;;;;;;;;;;21.72;34.37;98835.22;4098906;29;19945;-65
2024/03/29 07:03:54;;;;;;;;;;;;;;;21.72;34.53;98843.25;4098798;29;19922;-65
2024/03/29 07:05:54;;;;;;;;;;;;;;;21.74;34.47;98841.25;4098568;29;19977;-66
2024/03/29 07:07:55;;;;;;;;;;;;;;;21.76;34.06;98833.84;4098930;29;20385;-66
2024/03/29 07:09:56;;;;;;;;;;;;;;;21.73;34.26;98834.22;4098802;29;19922;-65
2024/03/29 07:11:58;;;;;;;;;;;;;;;21.72;34.06;98827.19;4098828;29;20382;-65
2024/03/29 07:13:59;;;;;;;;;;;;;;;21.73;34.18;98820.84;4098521;29;19937;-66
2024/03/29 07:16:01;;;;;;;;;;;;;;;21.73;34.47;98820.03;4082774;29;19926;-66
2024/03/29 07:18:05;;;;;;;;;;;;;;;21.72;34.16;98824.53;4098568;29;20310;-66
2024/03/29 07:20:08;;;;;;;;;;;;;;;21.75;34.25;98826.00;4098421;29;19928;-66
2024/03/29 07:22:11;;;;;;;;;;;;;;;21.76;34.34;98825.00;4098507;29;19929;-66
2024/03/29 07:24:12;;;;;;;;;;;;;;;21.76;34.47;98819.66;4098750;29;19922;-67
2024/03/29 07:26:13;;;;;;;;;;;;;;;21.76;34.14;98820.47;4098441;29;20378;-66
2024/03/29 07:28:14;;;;;;;;;;;;;;;21.78;34.33;98818.47;4098151;28;19973;-66
2024/03/29 07:30:15;;;;;;;;;;;;;;;21.80;34.39;98815.59;4098447;29;19927;-67
2024/03/29 07:32:16;;;;;;;;;;;;;;;21.82;34.48;98826.97;4098638;29;20325;-67
2024/03/29 07:34:17;;;;;;;;;;;;;;;21.84;34.34;98825.78;4098092;29;19922;-67
2024/03/29 07:36:18;;;;;;;;;;;;;;;21.82;34.39;98827.84;4098387;29;19962;-66
2024/03/29 07:38:20;;;;;;;;;;;;;;;21.82;34.07;98837.69;4098626;29;19923;-65
2024/03/29 07:40:21;;;;;;;;;;;;;;;21.80;34.42;98855.75;4098459;29;19929;-66
2024/03/29 07:42:22;;;;;;;;;;;;;;;21.81;34.07;98866.31;4098229;29;19926;-66
2024/03/29 07:44:23;;;;;;;;;;;;;;;21.79;34.48;98857.59;4098235;29;19993;-65
2024/03/29 07:46:24;;;;;;;;;;;;;;;21.80;34.46;98855.75;4082507;29;20025;-65
2024/03/29 07:48:25;;;;;;;;;;;;;;;21.80;34.41;98845.03;4098126;29;20347;-66
2024/03/29 07:50:26;;;;;;;;;;;;;;;21.80;34.59;98859.28;4098017;29;19934;-64
2024/03/29 07:52:26;;;;;;;;;;;;;;;21.81;34.25;98858.28;4098174;29;19926;-65
2024/03/29 07:54:27;;;;;;;;;;;;;;;21.83;34.51;98858.91;4098221;29;19972;-65
2024/03/29 07:56:28;;;;;;;;;;;;;;;21.84;34.64;98860.59;4098450;29;20468;-65
2024/03/29 07:58:29;;;;;;;;;;;;;;;21.82;34.57;98854.59;4098117;29;19969;-66
2024/03/29 08:00:33;;;;;;;;;;;;;;;21.84;34.37;98851.72;4098209;29;19985;-65
2024/03/29 08:02:34;;;;;;;;;;;;;;;21.83;34.36;98856.22;4098292;29;19976;-66
2024/03/29 08:04:35;;;;;;;;;;;;;;;21.84;34.54;98865.94;4098097;29;19922;-66
2024/03/29 08:06:36;;;;;;;;;;;;;;;21.82;34.60;98857.28;4097961;29;19926;-67
2024/03/29 08:08:37;;;;;;;;;;;;;;;21.81;34.17;98855.59;4098151;29;19922;-67
2024/03/29 08:10:37;;;;;;;;;;;;;;;21.83;34.71;98852.75;4098038;29;20016;-67
2024/03/29 08:12:38;;;;;;;;;;;;;;;21.82;34.65;98849.25;4082086;29;19929;-66
2024/03/29 08:14:40;;;;;;;;;;;;;;;21.83;34.38;98858.09;4098168;29;19929;-67
2024/03/29 08:16:40;;;;;;;;;;;;;;;21.83;34.53;98848.22;4098195;29;20310;-67
2024/03/29 08:18:41;;;;;;;;;;;;;;;21.83;34.52;98848.22;4097586;29;19965;-67
2024/03/29 08:20:42;;;;;;;;;;;;;;;21.85;34.49;98854.22;4097997;29;19990;-67
2024/03/29 08:22:43;;;;;;;;;;;;;;;21.89;34.50;98860.06;4098047;29;19926;-66
2024/03/29 08:24:44;;;;;;;;;;;;;;;21.89;34.72;98869.94;4097896;29;19991;-67
2024/03/29 08:26:45;;;;;;;;;;;;;;;21.92;34.42;98885.66;4097997;29;19930;-67
2024/03/29 08:28:46;;;;;;;;;;;;;;;21.94;34.78;98867.59;4097967;29;19966;-67
2024/03/29 08:30:56;;;;;;;;;;;;;;;21.94;34.53;98894.34;4097943;29;19922;-67
2024/03/29 08:32:59;;;;;;;;;;;;;;;21.93;34.55;98900.72;4097713;29;20421;-67
2024/03/29 08:35:00;;;;;;;;;;;;;;;21.92;34.42;98901.72;4097987;29;19929;-67
2024/03/29 08:37:02;;;;;;;;;;;;;;;21.90;34.68;98907.25;4081906;29;19930;-66
2024/03/29 08:39:03;;;;;;;;;;;;;;;21.90;34.85;98901.88;4097847;29;20362;-67
2024/03/29 08:41:04;;;;;;;;;;;;;;;21.92;34.61;98909.75;4099646;28;20017;-67
2024/03/29 08:43:05;;;;;;;;;;;;;;;21.91;34.60;98902.72;4100984;29;19927;-66
2024/03/29 08:45:08;;;;;;;;;;;;;;;21.90;34.52;98901.88;4101050;29;20343;-66
2024/03/29 08:47:10;;;;;;;;;;;;;;;21.93;34.47;98904.19;4100467;29;19928;-66
2024/03/29 08:49:11;;;;;;;;;;;;;;;21.92;34.76;98899.88;4100694;29;19926;-67
2024/03/29 08:51:12;;;;;;;;;;;;;;;21.94;34.52;98891.66;4084793;29;19930;-67
2024/03/29 08:53:12;;;;;;;;;;;;;;;21.95;34.62;98893.34;4100798;29;19923;-67
2024/03/29 08:55:13;;;;;;;;;;;;;;;21.94;34.71;98897.03;4100702;29;19922;-66
2024/03/29 08:57:14;;;;;;;;;;;;;;;21.93;34.58;98911.41;4100726;29;19922;-66
2024/03/29 08:59:15;;;;;;;;;;;;;;;21.91;34.74;98908.06;4100730;29;19922;-66
2024/03/29 09:01:16;;;;;;;;;;;;;;;21.91;34.72;98911.59;4100565;29;19944;-67
2024/03/29 09:03:17;;;;;;;;;;;;;;;21.93;34.63;98922.13;4100617;29;19924;-66
2024/03/29 09:05:18;;;;;;;;;;;;;;;21.93;34.77;98914.09;4100772;29;19974;-65
2024/03/29 09:07:22;;;;;;;;;;;;;;;21.94;34.65;98921.13;4100477;29;20302;-67
2024/03/29 09:09:23;;;;;;;;;;;;;;;21.94;34.73;98929.16;4100691;29;19926;-66
2024/03/29 09:11:23;;;;;;;;;;;;;;;21.96;34.75;98937.84;4100590;29;19985;-65
2024/03/29 09:13:24;;;;;;;;;;;;;;;21.96;34.45;98944.03;4100311;29;20369;-66
2024/03/29 09:15:25;;;;;;;;;;;;;;;21.97;34.39;98950.19;4100653;29;19930;-67
2024/03/29 09:17:26;;;;;;;;;;;;;;;21.97;34.63;98950.19;4100126;29;19965;-66
2024/03/29 09:19:27;;;;;;;;;;;;;;;22.00;34.45;98956.03;4100182;29;19992;-66
2024/03/29 09:21:28;;;;;;;;;;;;;;;22.01;34.77;98963.06;4084336;29;19929;-66
2024/03/29 09:23:29;;;;;;;;;;;;;;;22.02;34.45;98958.56;4100519;29;20341;-66
2024/03/29 09:25:32;;;;;;;;;;;;;;;22.02;34.67;98963.91;4100269;29;19930;-66
2024/03/29 09:27:36;;;;;;;;;;;;;;;22.03;34.35;98973.63;4100265;29;19922;-67
2024/03/29 09:29:37;;;;;;;;;;;;;;;22.03;34.64;98976.31;4100158;29;20389;-67
2024/03/29 09:31:38;;;;;;;;;;;;;;;22.01;34.50;98981.81;4100032;29;20271;-66
2024/03/29 09:33:39;;;;;;;;;;;;;;;22.01;34.74;98989.84;4100170;29;19929;-66
2024/03/29 09:35:40;;;;;;;;;;;;;;;22.00;34.48;99006.91;4100312;29;19996;-67
2024/03/29 09:37:42;;;;;;;;;;;;;;;22.04;34.41;99001.22;4100047;29;19929;-66
2024/03/29 09:39:43;;;;;;;;;;;;;;;22.03;34.73;99003.06;4099982;29;19928;-67
2024/03/29 09:41:47;;;;;;;;;;;;;;;22.04;34.50;98985.97;4100062;29;19934;-67
2024/03/29 09:43:48;;;;;;;;;;;;;;;22.06;34.46;98964.41;4099841;29;20025;-66
2024/03/29 09:45:49;;;;;;;;;;;;;;;22.08;34.65;98949.84;4099699;29;19926;-66
2024/03/29 09:47:51;;;;;;;;;;;;;;;22.12;34.31;98961.03;4099924;29;20390;-66
2024/03/29 09:49:54;;;;;;;;;;;;;;;22.09;34.36;98964.91;4099628;29;19929;-66
2024/03/29 09:51:55;;;;;;;;;;;;;;;22.12;34.59;98969.06;4099634;28;19922;-66
2024/03/29 09:53:57;;;;;;;;;;;;;;;22.12;34.35;98966.41;4099935;29;19923;-65
2024/03/29 09:55:59;;;;;;;;;;;;;;;22.13;34.59;98973.44;4099746;29;19922;-66
2024/03/29 09:58:00;;;;;;;;;;;;;;;22.12;34.48;98977.09;4099584;29;20451;-65
2024/03/29 10:00:00;;;;;;;;;;;;;;;22.14;34.32;98988.47;4099397;29;19926;-65
2024/03/29 10:02:04;;;;;;;;;;;;;;;22.14;34.42;98986.63;4099656;29;19930;-64
2024/03/29 10:04:05;;;;;;;;;;;;;;;22.12;34.47;98998.53;4099467;29;19929;-65
2024/03/29 10:06:12;;;;;;;;;;;;;;;22.04;34.46;98996.69;4099666;29;19934;-65
2024/03/29 10:08:14;;;;;;;;;;;;;;;22.09;34.67;98996.19;4099445;29;19922;-66
2024/03/29 10:10:15;;;;;;;;;;;;;;;22.09;34.53;98988.16;4099225;29;19958;-65
2024/03/29 10:12:17;;;;;;;;;;;;;;;22.10;34.63;98989.81;4083668;29;20291;-65
2024/03/29 10:14:18;;;;;;;;;;;;;;;22.11;34.28;99004.88;4099182;29;20314;-65
2024/03/29 10:16:24;;;;;;;;;;;;;;;22.09;34.57;98999.72;4099321;29;19922;-64
2024/03/29 10:18:26;;;;;;;;;;;;;;;22.11;34.54;99005.72;4099289;29;19926;-64
2024/03/29 10:20:27;;;;;;;;;;;;;;;22.12;34.47;98999.34;4099411;29;19922;-65
2024/03/29 10:22:28;;;;;;;;;;;;;;;22.14;34.22;99000.03;4099329;29;20433;-65
2024/03/29 10:24:29;;;;;;;;;;;;;;;22.14;34.36;98997.34;4099083;29;20346;-64
2024/03/29 10:26:30;;;;;;;;;;;;;;;22.14;34.27;98992.00;4097571;29;20426;-66
2024/03/29 10:28:35;;;;;;;;;;;;;;;22.16;34.52;98989.13;4097766;29;19950;-64
2024/03/29 10:30:37;;;;;;;;;;;;;;;22.17;34.32;98988.94;4094860;29;19929;-65
2024/03/29 10:32:41;;;;;;;;;;;;;;;22.18;34.29;98987.13;4095347;29;19922;-67
2024/03/29 10:34:42;;;;;;;;;;;;;;;22.17;34.38;98996.97;4083426;29;19929;-66
2024/03/29 10:36:43;;;;;;;;;;;;;;;22.22;34.21;98980.41;4085901;29;20294;-65